Time;durP1;ratioP1;P1;durP2;ratioP2;P2;SDS_P1;SDS_P2;PMS_P1;PMS_P2;Temp;Humidity;BMP_temperature;BMP_pressure;BME280_temperature;BME280_humidity;BME280_pressure;Samples;Min_cycle;Max_cycle;Signal;HPM_P1;HPM_P2
2021/05/06 00:31:02;;;;;;;8.65;3.15;;;;;;;;;;5047534;28;20041;-84
2021/05/06 00:33:20;;;;;;;10.82;2.33;;;;;;;;;;5046961;28;20049;-84
2021/05/06 00:35:47;;;;;;;11.23;2.75;;;;;;;;;;5049376;28;20038;-83
2021/05/06 00:38:17;;;;;;;10.68;2.63;;;;;;;;;;5049053;28;20135;-84
2021/05/06 00:41:01;;;;;;;9.07;2.53;;;;;;;;;;5049168;28;20041;-84
2021/05/06 00:54:23;;;;;;;6.30;2.65;;;;;;;;;;5046840;28;20090;-84
2021/05/06 00:56:53;;;;;;;9.70;2.78;;;;;;;;;;5033644;28;20500;-85
2021/05/06 01:02:46;;;;;;;9.40;2.92;;;;;;;;;;5023023;28;20056;-84
2021/05/06 01:05:19;;;;;;;6.25;2.30;;;;;;;;;;5025276;28;20128;-85
2021/05/06 01:12:56;;;;;;;5.97;3.05;;;;;;;;;;5032205;28;20045;-84
2021/05/06 01:15:22;;;;;;;7.68;2.78;;;;;;;;;;5048721;28;20040;-85
2021/05/06 01:17:48;;;;;;;11.80;2.83;;;;;;;;;;5048690;28;20171;-84
2021/05/06 01:20:14;;;;;;;11.13;2.97;;;;;;;;;;5033524;28;20041;-83
2021/05/06 01:22:40;;;;;;;10.32;2.97;;;;;;;;;;5048721;28;20041;-84
2021/05/06 01:25:07;;;;;;;6.97;2.67;;;;;;;;;;5033311;28;20261;-85
2021/05/06 01:33:01;;;;;;;10.27;3.70;;;;;;;;;;5046261;28;20102;-85
2021/05/06 01:38:12;;;;;;;6.25;2.65;;;;;;;;;;5032786;28;20057;-85
2021/05/06 01:43:35;;;;;;;5.63;2.30;;;;;;;;;;5046113;28;20041;-84
2021/05/06 01:59:25;;;;;;;8.07;2.60;;;;;;;;;;5045680;28;20477;-85
2021/05/06 02:01:51;;;;;;;8.65;3.08;;;;;;;;;;5048149;28;20124;-84
2021/05/06 02:04:17;;;;;;;6.88;3.10;;;;;;;;;;5031061;28;20568;-84
2021/05/06 02:06:45;;;;;;;12.90;3.20;;;;;;;;;;5048174;28;20049;-84
2021/05/06 02:09:11;;;;;;;8.52;3.08;;;;;;;;;;5047501;28;20045;-83
2021/05/06 02:11:38;;;;;;;11.45;3.45;;;;;;;;;;5047769;28;20043;-84
2021/05/06 02:14:06;;;;;;;10.13;3.38;;;;;;;;;;5047735;28;20033;-84
2021/05/06 02:16:38;;;;;;;8.23;3.20;;;;;;;;;;5047394;28;20045;-84
2021/05/06 02:19:05;;;;;;;11.37;3.50;;;;;;;;;;5046712;28;20451;-84
2021/05/06 02:21:31;;;;;;;9.15;3.55;;;;;;;;;;5047391;28;20780;-84
2021/05/06 02:23:57;;;;;;;7.55;3.20;;;;;;;;;;5047641;28;20041;-84
2021/05/06 02:26:23;;;;;;;10.07;3.20;;;;;;;;;;5047574;28;20038;-85
2021/05/06 02:28:49;;;;;;;8.02;3.47;;;;;;;;;;5047573;28;20404;-86
2021/05/06 02:31:15;;;;;;;13.20;3.45;;;;;;;;;;5047669;28;20120;-84
2021/05/06 02:33:42;;;;;;;5.10;3.17;;;;;;;;;;5047599;28;20038;-83
2021/05/06 02:36:08;;;;;;;6.35;3.50;;;;;;;;;;5047396;28;20168;-84
2021/05/06 02:38:34;;;;;;;6.85;2.95;;;;;;;;;;5047276;28;20108;-84
2021/05/06 02:41:00;;;;;;;6.82;3.38;;;;;;;;;;5047530;28;20042;-84
2021/05/06 02:43:26;;;;;;;8.70;3.28;;;;;;;;;;5047457;28;20045;-85
2021/05/06 02:45:52;;;;;;;11.95;3.15;;;;;;;;;;5047445;28;20504;-85
2021/05/06 02:48:19;;;;;;;8.40;2.97;;;;;;;;;;5047421;28;20037;-85
2021/05/06 02:50:50;;;;;;;7.05;3.20;;;;;;;;;;5047492;28;20044;-85
2021/05/06 02:53:19;;;;;;;8.85;3.78;;;;;;;;;;5046499;28;20037;-84
2021/05/06 02:58:44;;;;;;;12.40;3.67;;;;;;;;;;5046874;28;20037;-83
2021/05/06 03:04:02;;;;;;;10.75;3.72;;;;;;;;;;5044837;28;20041;-85
2021/05/06 03:06:30;;;;;;;10.30;4.13;;;;;;;;;;5046290;28;20044;-85
2021/05/06 03:09:24;;;;;;;9.48;3.60;;;;;;;;;;5046690;28;20034;-85
2021/05/06 03:12:02;;;;;;;8.50;3.10;;;;;;;;;;5043317;28;20133;-84
2021/05/06 03:15:00;;;;;;;8.63;3.47;;;;;;;;;;5045479;28;20041;-85
2021/05/06 03:22:58;;;;;;;4.88;2.85;;;;;;;;;;5044769;28;20041;-84
2021/05/06 03:25:25;;;;;;;7.43;3.10;;;;;;;;;;5046500;28;20045;-85
2021/05/06 04:13:35;;;;;;;6.63;3.50;;;;;;;;;;5047662;28;20354;-84
2021/05/06 04:16:16;;;;;;;7.28;3.40;;;;;;;;;;5034457;28;20116;-85
2021/05/06 04:21:43;;;;;;;7.50;4.07;;;;;;;;;;5047753;28;20037;-85
2021/05/06 04:37:36;;;;;;;5.72;3.70;;;;;;;;;;5047139;28;20047;-85
2021/05/06 04:40:09;;;;;;;7.10;3.90;;;;;;;;;;5049310;28;20049;-85
2021/05/06 04:45:38;;;;;;;5.68;3.90;;;;;;;;;;5032835;28;20041;-84
2021/05/06 04:53:29;;;;;;;6.53;4.10;;;;;;;;;;5046958;28;20047;-84
2021/05/06 05:09:49;;;;;;;6.22;3.63;;;;;;;;;;5047158;28;20044;-85
2021/05/06 05:12:42;;;;;;;5.93;4.25;;;;;;;;;;5032381;28;20068;-84
2021/05/06 05:25:36;;;;;;;6.88;3.60;;;;;;;;;;5033345;28;20046;-84
2021/05/06 05:28:03;;;;;;;5.25;2.97;;;;;;;;;;5047203;28;20048;-84
2021/05/06 05:30:31;;;;;;;4.70;3.50;;;;;;;;;;5048470;28;20124;-84
2021/05/06 05:32:57;;;;;;;5.57;2.97;;;;;;;;;;5048288;28;20042;-85
2021/05/06 05:35:37;;;;;;;4.53;2.95;;;;;;;;;;5048643;28;20397;-84
2021/05/06 05:38:09;;;;;;;4.95;3.20;;;;;;;;;;5046375;28;20061;-85
2021/05/06 05:43:28;;;;;;;4.00;2.75;;;;;;;;;;5048092;28;20120;-85
2021/05/06 05:56:41;;;;;;;5.40;2.63;;;;;;;;;;5045546;28;20044;-85
2021/05/06 05:59:08;;;;;;;3.20;2.33;;;;;;;;;;5048110;28;20120;-85
2021/05/06 06:01:34;;;;;;;5.85;2.20;;;;;;;;;;5047933;28;20429;-82
2021/05/06 06:04:00;;;;;;;3.38;1.95;;;;;;;;;;5032663;28;20443;-83
2021/05/06 06:06:26;;;;;;;2.85;1.83;;;;;;;;;;5031380;28;20049;-84
2021/05/06 06:08:52;;;;;;;4.35;2.20;;;;;;;;;;5032630;28;20091;-83
2021/05/06 06:11:19;;;;;;;2.53;1.70;;;;;;;;;;5047701;28;20045;-83
2021/05/06 06:13:50;;;;;;;3.97;1.80;;;;;;;;;;5047737;28;20376;-83
2021/05/06 06:16:22;;;;;;;3.88;1.55;;;;;;;;;;5047037;28;20041;-83
2021/05/06 06:18:55;;;;;;;;;;;;;;;;;;5048451;28;20056;-85
2021/05/06 06:24:06;;;;;;;5.18;1.90;;;;;;;;;;5045362;28;20047;-84
2021/05/06 06:26:32;;;;;;;3.17;1.95;;;;;;;;;;5047573;28;20037;-85
2021/05/06 06:29:07;;;;;;;2.53;1.60;;;;;;;;;;5047042;28;20064;-85
2021/05/06 06:31:38;;;;;;;3.28;1.50;;;;;;;;;;5047084;28;20084;-85
2021/05/06 06:34:05;;;;;;;2.50;1.58;;;;;;;;;;5046633;28;20069;-84
2021/05/06 06:36:31;;;;;;;3.45;1.40;;;;;;;;;;5047383;28;20046;-85
2021/05/06 06:38:57;;;;;;;3.33;1.70;;;;;;;;;;5047397;28;20076;-84
2021/05/06 06:41:23;;;;;;;2.05;1.33;;;;;;;;;;5031161;28;20092;-85
2021/05/06 06:43:52;;;;;;;3.28;1.50;;;;;;;;;;5047387;28;20037;-86
2021/05/06 06:46:18;;;;;;;3.35;1.42;;;;;;;;;;5046996;28;20500;-85
2021/05/06 06:48:44;;;;;;;2.80;1.20;;;;;;;;;;5047270;28;20044;-85
2021/05/06 06:51:10;;;;;;;2.97;1.50;;;;;;;;;;5047337;28;20389;-85
2021/05/06 06:53:38;;;;;;;4.18;1.70;;;;;;;;;;5047176;28;20055;-86
2021/05/06 06:56:04;;;;;;;3.10;1.73;;;;;;;;;;5047203;28;20039;-85
2021/05/06 06:58:30;;;;;;;3.40;1.65;;;;;;;;;;5047327;28;20087;-86
2021/05/06 07:00:56;;;;;;;4.05;1.40;;;;;;;;;;5047397;28;20095;-85
2021/05/06 07:03:23;;;;;;;4.07;1.30;;;;;;;;;;5047141;28;20061;-84
2021/05/06 07:05:49;;;;;;;4.35;1.88;;;;;;;;;;5048285;28;20038;-84
2021/05/06 07:08:16;;;;;;;3.28;1.58;;;;;;;;;;5035724;28;20124;-85
2021/05/06 07:10:42;;;;;;;3.95;1.42;;;;;;;;;;5051000;28;20037;-85
2021/05/06 07:13:08;;;;;;;4.13;1.38;;;;;;;;;;5050980;28;20120;-85
2021/05/06 07:15:35;;;;;;;3.13;1.52;;;;;;;;;;5035667;28;20489;-85
2021/05/06 07:18:01;;;;;;;2.50;1.23;;;;;;;;;;5050869;28;20084;-86
2021/05/06 07:20:27;;;;;;;3.17;1.27;;;;;;;;;;5051048;28;20041;-85
2021/05/06 07:22:53;;;;;;;5.05;1.50;;;;;;;;;;5050827;28;20033;-85
2021/05/06 07:25:19;;;;;;;3.58;1.30;;;;;;;;;;5050570;28;20045;-82
2021/05/06 07:27:45;;;;;;;2.25;1.30;;;;;;;;;;5050788;28;20038;-83
2021/05/06 07:30:11;;;;;;;4.28;1.42;;;;;;;;;;5050769;28;20037;-83
2021/05/06 07:32:38;;;;;;;4.75;1.30;;;;;;;;;;5050710;28;20401;-83
2021/05/06 07:35:04;;;;;;;3.03;1.20;;;;;;;;;;5050656;28;20421;-82
2021/05/06 07:37:33;;;;;;;6.30;1.70;;;;;;;;;;5050630;28;20065;-84
2021/05/06 07:39:59;;;;;;;3.13;1.40;;;;;;;;;;5050631;28;20045;-84
2021/05/06 07:42:25;;;;;;;4.68;1.50;;;;;;;;;;5050678;28;20477;-84
2021/05/06 07:44:51;;;;;;;4.00;1.50;;;;;;;;;;5033981;28;20404;-84
2021/05/06 07:47:18;;;;;;;2.13;1.20;;;;;;;;;;5050549;28;20128;-84
2021/05/06 07:49:48;;;;;;;5.05;1.38;;;;;;;;;;5035161;28;20061;-84
2021/05/06 07:52:16;;;;;;;3.00;1.33;;;;;;;;;;5035243;28;20388;-84
2021/05/06 07:54:43;;;;;;;3.95;1.40;;;;;;;;;;5050020;28;20042;-86
2021/05/06 07:57:09;;;;;;;2.35;1.20;;;;;;;;;;5033897;28;20052;-84
2021/05/06 07:59:35;;;;;;;5.00;1.70;;;;;;;;;;5050139;28;20423;-84
2021/05/06 08:02:03;;;;;;;4.53;1.45;;;;;;;;;;5050340;28;20107;-83
2021/05/06 08:04:29;;;;;;;4.95;1.52;;;;;;;;;;5050077;28;20046;-83
2021/05/06 08:06:55;;;;;;;3.35;1.77;;;;;;;;;;5050124;28;20041;-86
2021/05/06 08:09:21;;;;;;;2.92;1.40;;;;;;;;;;5050320;28;20068;-83
2021/05/06 08:11:49;;;;;;;3.55;1.75;;;;;;;;;;5050099;28;20469;-84
2021/05/06 08:14:15;;;;;;;3.88;1.30;;;;;;;;;;5049567;28;20587;-84
2021/05/06 08:16:41;;;;;;;2.55;1.60;;;;;;;;;;5049823;28;20058;-84
2021/05/06 08:19:08;;;;;;;3.45;1.50;;;;;;;;;;5033936;28;20034;-86
2021/05/06 08:21:34;;;;;;;1.60;1.30;;;;;;;;;;5049964;28;20041;-86
2021/05/06 08:24:00;;;;;;;3.65;1.40;;;;;;;;;;5034797;28;20335;-84
2021/05/06 08:26:27;;;;;;;3.10;1.50;;;;;;;;;;5049632;28;20041;-84
2021/05/06 08:28:53;;;;;;;3.00;1.38;;;;;;;;;;5049646;28;20119;-84
2021/05/06 08:31:20;;;;;;;4.22;1.52;;;;;;;;;;5049793;28;20038;-84
2021/05/06 08:33:46;;;;;;;3.22;1.30;;;;;;;;;;5049644;28;20053;-85
2021/05/06 08:36:12;;;;;;;3.90;1.10;;;;;;;;;;5049840;28;20129;-84
2021/05/06 08:38:38;;;;;;;3.00;1.30;;;;;;;;;;5049448;28;20100;-84
2021/05/06 08:41:04;;;;;;;5.60;1.35;;;;;;;;;;5049506;28;20072;-84
2021/05/06 08:43:35;;;;;;;4.40;1.27;;;;;;;;;;5049847;28;20073;-85
2021/05/06 08:46:01;;;;;;;4.55;1.58;;;;;;;;;;5048980;28;20429;-85
2021/05/06 08:48:27;;;;;;;3.95;1.40;;;;;;;;;;5049549;28;20396;-85
2021/05/06 08:50:54;;;;;;;3.38;1.58;;;;;;;;;;5049396;28;20488;-85
2021/05/06 08:53:20;;;;;;;2.80;1.30;;;;;;;;;;5049426;28;20489;-84
2021/05/06 08:55:47;;;;;;;5.18;1.52;;;;;;;;;;5049169;28;20049;-84
2021/05/06 08:58:13;;;;;;;6.50;1.75;;;;;;;;;;5049230;28;20037;-84
2021/05/06 09:00:39;;;;;;;3.95;1.35;;;;;;;;;;5049166;28;20040;-85
2021/05/06 09:03:05;;;;;;;4.57;1.40;;;;;;;;;;5049148;28;20378;-85
2021/05/06 09:05:35;;;;;;;4.85;1.33;;;;;;;;;;5049280;28;20044;-85
2021/05/06 09:08:01;;;;;;;2.28;1.40;;;;;;;;;;5033811;28;20044;-85
2021/05/06 09:10:37;;;;;;;2.88;1.50;;;;;;;;;;5048958;28;20034;-84
2021/05/06 09:13:04;;;;;;;4.38;1.30;;;;;;;;;;5048474;28;20050;-84
2021/05/06 09:15:30;;;;;;;3.28;1.52;;;;;;;;;;5049038;28;20099;-84
2021/05/06 09:17:56;;;;;;;2.53;1.65;;;;;;;;;;5048862;28;20044;-84
2021/05/06 09:20:23;;;;;;;4.90;1.80;;;;;;;;;;5048880;28;20033;-84
2021/05/06 09:22:56;;;;;;;6.43;2.13;;;;;;;;;;5048590;28;20393;-84
2021/05/06 09:25:22;;;;;;;3.47;1.58;;;;;;;;;;5033398;28;20209;-84
2021/05/06 09:27:48;;;;;;;5.93;1.83;;;;;;;;;;5033202;28;20101;-84
2021/05/06 09:30:14;;;;;;;4.95;2.08;;;;;;;;;;5032261;28;20142;-84
2021/05/06 09:32:40;;;;;;;4.43;2.40;;;;;;;;;;5048527;28;20040;-84
2021/05/06 09:35:06;;;;;;;4.22;2.22;;;;;;;;;;5048519;28;20038;-84
2021/05/06 09:37:38;;;;;;;3.13;1.70;;;;;;;;;;5048228;28;20077;-84
2021/05/06 09:40:05;;;;;;;3.47;2.20;;;;;;;;;;5047800;28;20507;-84
2021/05/06 09:42:37;;;;;;;4.50;2.35;;;;;;;;;;5048426;28;20124;-84
2021/05/06 09:45:03;;;;;;;2.50;2.30;;;;;;;;;;5031845;28;20148;-84
2021/05/06 09:47:29;;;;;;;5.13;2.15;;;;;;;;;;5048424;28;20038;-84
2021/05/06 09:49:55;;;;;;;3.28;2.10;;;;;;;;;;5048149;28;20073;-84
2021/05/06 09:52:21;;;;;;;1.98;1.58;;;;;;;;;;5048245;28;20065;-84
2021/05/06 09:54:48;;;;;;;3.53;1.30;;;;;;;;;;5048009;28;20073;-84
2021/05/06 09:57:29;;;;;;;3.45;1.30;;;;;;;;;;5047900;28;20048;-84
2021/05/06 10:00:14;;;;;;;4.93;1.20;;;;;;;;;;5048036;28;20543;-84
2021/05/06 10:02:40;;;;;;;1.65;0.90;;;;;;;;;;5048096;28;20038;-84
2021/05/06 10:05:07;;;;;;;2.50;1.20;;;;;;;;;;5047916;28;20037;-84
2021/05/06 10:07:33;;;;;;;2.13;1.05;;;;;;;;;;5032696;28;20049;-84
2021/05/06 10:10:00;;;;;;;2.50;1.30;;;;;;;;;;5047941;28;20037;-84
2021/05/06 10:12:30;;;;;;;2.95;1.20;;;;;;;;;;5047802;28;20065;-84
2021/05/06 10:14:56;;;;;;;1.60;1.05;;;;;;;;;;5047644;28;20041;-84
2021/05/06 10:17:23;;;;;;;2.05;1.10;;;;;;;;;;5047672;28;20052;-84
2021/05/06 10:19:49;;;;;;;2.83;1.25;;;;;;;;;;5047732;28;20451;-83
2021/05/06 10:22:17;;;;;;;1.63;1.30;;;;;;;;;;5047670;28;20033;-84
2021/05/06 10:24:43;;;;;;;3.20;1.50;;;;;;;;;;5047572;28;20128;-84
2021/05/06 10:27:11;;;;;;;1.92;1.60;;;;;;;;;;5048381;28;20037;-84
2021/05/06 10:29:37;;;;;;;2.10;1.42;;;;;;;;;;5047453;28;20042;-84
2021/05/06 10:32:03;;;;;;;2.78;1.50;;;;;;;;;;5030956;28;20045;-84
2021/05/06 10:34:30;;;;;;;2.47;1.50;;;;;;;;;;5047531;28;20042;-84
2021/05/06 10:36:56;;;;;;;1.50;1.38;;;;;;;;;;5047407;28;20313;-84
2021/05/06 10:39:22;;;;;;;2.40;1.58;;;;;;;;;;5047341;28;20049;-84
2021/05/06 10:41:48;;;;;;;1.70;1.60;;;;;;;;;;5031864;28;20049;-84
2021/05/06 10:44:15;;;;;;;2.28;1.77;;;;;;;;;;5047312;28;20408;-84
2021/05/06 10:46:56;;;;;;;2.85;1.90;;;;;;;;;;5047163;28;20136;-84
2021/05/06 10:49:22;;;;;;;4.13;1.95;;;;;;;;;;5047536;28;20038;-84
2021/05/06 10:51:50;;;;;;;2.53;1.88;;;;;;;;;;5047231;28;20473;-84
2021/05/06 10:54:41;;;;;;;3.25;2.03;;;;;;;;;;5047226;28;20396;-84
2021/05/06 10:57:10;;;;;;;3.38;2.17;;;;;;;;;;5031298;28;20144;-84
2021/05/06 10:59:40;;;;;;;3.40;2.40;;;;;;;;;;5031906;28;20057;-84
2021/05/06 11:02:10;;;;;;;3.15;2.10;;;;;;;;;;5047328;28;20045;-84
2021/05/06 11:04:39;;;;;;;3.72;2.42;;;;;;;;;;5032138;28;20049;-84
2021/05/06 11:07:11;;;;;;;3.58;2.70;;;;;;;;;;5047163;28;20041;-84
2021/05/06 11:09:45;;;;;;;3.15;2.63;;;;;;;;;;5031894;28;20152;-85
2021/05/06 11:12:17;;;;;;;7.18;2.90;;;;;;;;;;5031753;28;20033;-84
2021/05/06 11:15:01;;;;;;;3.47;3.15;;;;;;;;;;5047215;28;20409;-85
2021/05/06 11:17:27;;;;;;;4.47;3.03;;;;;;;;;;5031661;28;20634;-85
2021/05/06 11:19:53;;;;;;;3.40;3.10;;;;;;;;;;5031779;28;20112;-84
2021/05/06 11:22:38;;;;;;;4.47;3.40;;;;;;;;;;5047087;28;20038;-84
2021/05/06 11:25:24;;;;;;;3.45;2.92;;;;;;;;;;5031799;28;20052;-85
2021/05/06 11:27:50;;;;;;;4.03;3.15;;;;;;;;;;5031438;28;20041;-84
2021/05/06 11:30:35;;;;;;;3.78;3.40;;;;;;;;;;5047127;28;20048;-84
2021/05/06 11:33:19;;;;;;;3.83;2.90;;;;;;;;;;5031802;28;20424;-85
2021/05/06 11:35:55;;;;;;;3.33;2.85;;;;;;;;;;5031717;28;20034;-85
2021/05/06 11:38:22;;;;;;;4.95;2.90;;;;;;;;;;5046671;28;20041;-84
2021/05/06 11:40:48;;;;;;;6.45;3.28;;;;;;;;;;5047049;28;20366;-84
2021/05/06 11:43:23;;;;;;;4.28;3.33;;;;;;;;;;5046946;28;20056;-85
2021/05/06 11:45:50;;;;;;;5.18;3.67;;;;;;;;;;5046882;28;20033;-84
2021/05/06 11:48:17;;;;;;;3.80;3.40;;;;;;;;;;5046699;28;20038;-85
2021/05/06 11:50:44;;;;;;;4.75;3.50;;;;;;;;;;5031464;28;20111;-84
2021/05/06 11:53:14;;;;;;;4.65;3.60;;;;;;;;;;5047870;28;20116;-84
2021/05/06 11:55:42;;;;;;;4.00;3.50;;;;;;;;;;5050394;28;20059;-84
2021/05/06 11:58:09;;;;;;;3.97;3.58;;;;;;;;;;5050354;28;20379;-84
2021/05/06 12:00:39;;;;;;;5.55;4.05;;;;;;;;;;5050077;28;20045;-84
2021/05/06 12:03:09;;;;;;;5.00;3.72;;;;;;;;;;5050088;28;20046;-84
2021/05/06 12:05:55;;;;;;;3.75;3.10;;;;;;;;;;5035027;28;20115;-84
2021/05/06 12:08:23;;;;;;;2.72;1.83;;;;;;;;;;5050017;28;20107;-84
2021/05/06 12:10:50;;;;;;;2.70;1.98;;;;;;;;;;5049710;28;20456;-84
2021/05/06 12:13:17;;;;;;;2.63;2.08;;;;;;;;;;5050084;28;20370;-84
2021/05/06 12:15:44;;;;;;;2.45;2.20;;;;;;;;;;5049642;28;20095;-84
2021/05/06 12:18:16;;;;;;;2.58;1.90;;;;;;;;;;5049887;28;20504;-84
2021/05/06 12:20:48;;;;;;;3.25;2.25;;;;;;;;;;5049953;28;20061;-84
2021/05/06 12:23:15;;;;;;;3.20;2.15;;;;;;;;;;5049900;28;20046;-84
2021/05/06 12:25:41;;;;;;;2.25;2.05;;;;;;;;;;5050029;28;20041;-84
2021/05/06 12:28:07;;;;;;;2.33;2.13;;;;;;;;;;5049866;28;20397;-84
2021/05/06 12:30:33;;;;;;;2.30;1.98;;;;;;;;;;5049681;28;20044;-84
2021/05/06 12:32:59;;;;;;;3.05;2.75;;;;;;;;;;5034278;28;20560;-84
2021/05/06 12:35:25;;;;;;;2.83;2.05;;;;;;;;;;5049616;28;20393;-84
2021/05/06 12:37:54;;;;;;;2.95;2.20;;;;;;;;;;5049602;28;20110;-84
2021/05/06 12:40:20;;;;;;;4.00;2.20;;;;;;;;;;5048931;28;20052;-84
2021/05/06 12:42:46;;;;;;;3.22;2.17;;;;;;;;;;5049424;28;20060;-84
2021/05/06 12:45:16;;;;;;;2.22;2.03;;;;;;;;;;5049556;28;20052;-84
2021/05/06 12:47:45;;;;;;;3.92;2.67;;;;;;;;;;5049545;28;20037;-84
2021/05/06 12:50:11;;;;;;;2.83;2.25;;;;;;;;;;5049418;28;20469;-84
2021/05/06 12:52:37;;;;;;;3.85;2.45;;;;;;;;;;5034254;28;20033;-84
2021/05/06 12:55:23;;;;;;;2.90;2.50;;;;;;;;;;5033895;28;20037;-84
2021/05/06 12:58:07;;;;;;;3.40;2.78;;;;;;;;;;5049132;28;20064;-84
2021/05/06 13:00:34;;;;;;;3.63;2.65;;;;;;;;;;5033834;28;20041;-84
2021/05/06 13:03:02;;;;;;;3.70;2.92;;;;;;;;;;5048977;28;20185;-84
2021/05/06 13:05:32;;;;;;;3.63;2.67;;;;;;;;;;5048840;28;20033;-84
2021/05/06 13:07:58;;;;;;;3.13;2.70;;;;;;;;;;5048878;28;20044;-84
2021/05/06 13:10:34;;;;;;;3.10;2.75;;;;;;;;;;5049039;28;20034;-84
2021/05/06 13:13:02;;;;;;;3.05;1.98;;;;;;;;;;5048823;28;20068;-84
2021/05/06 13:15:28;;;;;;;3.78;2.00;;;;;;;;;;5048932;28;20037;-84
2021/05/06 13:17:55;;;;;;;2.22;1.92;;;;;;;;;;5033473;28;20392;-84
2021/05/06 13:20:26;;;;;;;3.45;2.35;;;;;;;;;;5048527;28;20041;-84
2021/05/06 13:22:59;;;;;;;3.10;2.33;;;;;;;;;;5048758;28;20473;-84
2021/05/06 13:25:40;;;;;;;4.60;2.85;;;;;;;;;;5033398;28;20034;-84
2021/05/06 13:28:06;;;;;;;2.88;2.50;;;;;;;;;;5033436;28;20121;-84
2021/05/06 13:30:32;;;;;;;3.25;2.38;;;;;;;;;;5033266;28;20156;-84
2021/05/06 13:33:16;;;;;;;3.05;2.75;;;;;;;;;;5048432;28;20038;-84
2021/05/06 13:35:42;;;;;;;4.65;3.30;;;;;;;;;;5048353;28;20048;-84
2021/05/06 13:38:08;;;;;;;3.92;3.40;;;;;;;;;;5048585;28;20033;-84
2021/05/06 13:40:34;;;;;;;4.07;3.38;;;;;;;;;;5033054;28;20053;-84
2021/05/06 13:43:00;;;;;;;3.28;2.00;;;;;;;;;;5048437;28;20037;-84
2021/05/06 13:45:26;;;;;;;3.33;1.52;;;;;;;;;;5048238;28;20120;-84
2021/05/06 13:47:53;;;;;;;3.13;1.92;;;;;;;;;;5048173;28;20045;-84
2021/05/06 13:50:19;;;;;;;4.00;2.10;;;;;;;;;;5031799;28;20056;-84
2021/05/06 13:52:45;;;;;;;3.10;1.98;;;;;;;;;;5048118;28;20397;-84
2021/05/06 13:55:11;;;;;;;2.67;1.70;;;;;;;;;;5032648;28;20481;-84
2021/05/06 13:57:37;;;;;;;5.70;1.88;;;;;;;;;;5048083;28;20038;-84
2021/05/06 14:00:04;;;;;;;4.25;1.80;;;;;;;;;;5047870;28;20183;-84
2021/05/06 14:02:30;;;;;;;3.83;2.17;;;;;;;;;;5048119;28;20042;-84
2021/05/06 14:04:58;;;;;;;2.45;2.25;;;;;;;;;;5047761;28;20500;-84
2021/05/06 14:07:24;;;;;;;3.15;1.90;;;;;;;;;;5047817;28;20047;-84
2021/05/06 14:09:50;;;;;;;3.63;1.77;;;;;;;;;;5047776;28;20029;-84
2021/05/06 14:12:16;;;;;;;2.95;1.92;;;;;;;;;;5047718;28;20042;-84
2021/05/06 14:14:42;;;;;;;2.50;1.90;;;;;;;;;;5032248;28;20044;-84
2021/05/06 14:17:08;;;;;;;2.17;1.80;;;;;;;;;;5047353;28;20046;-84
2021/05/06 14:19:34;;;;;;;2.20;1.90;;;;;;;;;;5047727;28;20117;-84
2021/05/06 14:22:02;;;;;;;2.65;1.67;;;;;;;;;;5047722;28;20116;-84
2021/05/06 14:24:28;;;;;;;1.58;1.48;;;;;;;;;;5047581;28;20045;-84
2021/05/06 14:26:54;;;;;;;4.55;1.65;;;;;;;;;;5047530;28;20041;-84
2021/05/06 14:29:20;;;;;;;3.45;1.80;;;;;;;;;;5030908;28;20069;-84
2021/05/06 14:31:46;;;;;;;2.65;1.80;;;;;;;;;;5047579;28;20043;-84
2021/05/06 14:34:12;;;;;;;3.58;2.10;;;;;;;;;;5047534;28;20045;-84
2021/05/06 14:36:38;;;;;;;3.38;2.00;;;;;;;;;;5047752;28;20049;-84
2021/05/06 14:39:05;;;;;;;2.20;1.92;;;;;;;;;;5047218;28;20055;-84
2021/05/06 14:41:31;;;;;;;2.72;1.90;;;;;;;;;;5047336;28;20047;-84
2021/05/06 14:43:57;;;;;;;2.50;2.05;;;;;;;;;;5032108;28;20038;-84
2021/05/06 14:46:23;;;;;;;2.85;1.95;;;;;;;;;;5047294;28;20076;-84
2021/05/06 14:48:50;;;;;;;2.90;1.73;;;;;;;;;;5047247;28;20044;-84
2021/05/06 14:51:16;;;;;;;2.88;2.20;;;;;;;;;;5047330;28;20065;-84
2021/05/06 14:53:42;;;;;;;1.75;1.65;;;;;;;;;;5047286;28;20116;-84
2021/05/06 14:56:08;;;;;;;2.30;1.88;;;;;;;;;;5032048;28;20464;-84
2021/05/06 14:58:34;;;;;;;4.20;2.47;;;;;;;;;;5047365;28;20034;-84
2021/05/06 15:01:00;;;;;;;4.13;2.42;;;;;;;;;;5047272;28;20048;-84
2021/05/06 15:03:26;;;;;;;2.97;2.05;;;;;;;;;;5047241;28;20033;-84
2021/05/06 15:05:54;;;;;;;3.95;2.65;;;;;;;;;;5047057;28;20067;-84
2021/05/06 15:08:21;;;;;;;2.90;2.45;;;;;;;;;;5031815;28;20044;-84
2021/05/06 15:10:47;;;;;;;3.45;2.63;;;;;;;;;;5030452;28;20461;-84
2021/05/06 15:13:12;;;;;;;3.13;2.50;;;;;;;;;;5047105;28;20095;-84
2021/05/06 15:15:38;;;;;;;5.03;2.63;;;;;;;;;;5047374;28;20083;-84
2021/05/06 15:18:05;;;;;;;4.38;3.28;;;;;;;;;;5047115;28;20041;-84
2021/05/06 15:20:32;;;;;;;4.97;3.28;;;;;;;;;;5047108;28;20033;-84
2021/05/06 15:22:58;;;;;;;3.50;2.78;;;;;;;;;;5047201;28;20091;-84
2021/05/06 15:25:24;;;;;;;3.53;2.70;;;;;;;;;;5031682;28;20128;-85
2021/05/06 15:27:50;;;;;;;4.82;2.80;;;;;;;;;;5049597;28;20488;-85
2021/05/06 15:30:17;;;;;;;3.90;3.03;;;;;;;;;;5050813;28;20033;-85
2021/05/06 15:32:43;;;;;;;3.88;3.17;;;;;;;;;;5050939;28;20033;-85
2021/05/06 15:35:09;;;;;;;4.80;3.30;;;;;;;;;;5050946;28;20048;-85
2021/05/06 15:37:36;;;;;;;4.78;3.03;;;;;;;;;;5050731;28;20090;-85
2021/05/06 15:40:03;;;;;;;8.80;4.53;;;;;;;;;;5050374;28;20050;-85
2021/05/06 15:42:29;;;;;;;8.70;4.28;;;;;;;;;;5050612;28;20048;-85
2021/05/06 15:44:55;;;;;;;6.18;4.53;;;;;;;;;;5050740;28;20038;-85
2021/05/06 15:47:21;;;;;;;8.18;4.40;;;;;;;;;;5050560;28;20038;-85
2021/05/06 15:49:47;;;;;;;5.53;3.92;;;;;;;;;;5035314;28;20397;-86
2021/05/06 15:52:13;;;;;;;6.22;4.35;;;;;;;;;;5051116;28;20535;-85
2021/05/06 15:54:39;;;;;;;3.92;3.15;;;;;;;;;;5036654;28;20485;-85
2021/05/06 15:57:06;;;;;;;4.93;3.65;;;;;;;;;;5035816;28;20492;-85
2021/05/06 15:59:32;;;;;;;4.10;3.10;;;;;;;;;;5050363;28;20120;-85
2021/05/06 16:01:58;;;;;;;4.65;3.30;;;;;;;;;;5050482;28;20033;-84
2021/05/06 16:04:28;;;;;;;5.63;3.45;;;;;;;;;;5050235;28;20041;-85
2021/05/06 16:06:55;;;;;;;5.97;3.80;;;;;;;;;;5049391;28;20041;-85
2021/05/06 16:09:21;;;;;;;5.10;3.70;;;;;;;;;;5050077;28;20038;-86
2021/05/06 16:11:48;;;;;;;5.70;3.55;;;;;;;;;;5050194;28;20116;-85
2021/05/06 16:14:14;;;;;;;6.20;3.70;;;;;;;;;;5050042;28;20552;-85
2021/05/06 16:16:40;;;;;;;5.75;4.40;;;;;;;;;;5050153;28;20508;-84
2021/05/06 16:19:08;;;;;;;5.47;3.55;;;;;;;;;;5049879;28;20116;-85
2021/05/06 16:21:35;;;;;;;4.88;3.50;;;;;;;;;;5049476;28;20034;-85
2021/05/06 16:24:01;;;;;;;4.65;3.50;;;;;;;;;;5049797;28;20052;-85
2021/05/06 16:26:27;;;;;;;4.65;3.63;;;;;;;;;;5049715;28;20096;-85
2021/05/06 16:28:53;;;;;;;4.05;3.15;;;;;;;;;;5034536;28;20401;-85
2021/05/06 16:31:19;;;;;;;4.65;3.35;;;;;;;;;;5049737;28;20049;-85
2021/05/06 16:33:49;;;;;;;5.22;3.42;;;;;;;;;;5034385;28;20481;-85
2021/05/06 16:38:50;;;;;;;4.75;3.30;;;;;;;;;;5049047;28;20493;-86
2021/05/06 16:41:16;;;;;;;5.50;4.10;;;;;;;;;;5048691;28;20045;-86
2021/05/06 16:43:55;;;;;;;5.72;3.85;;;;;;;;;;5049689;28;20041;-86
2021/05/06 16:46:22;;;;;;;4.95;3.70;;;;;;;;;;5047740;28;20052;-84
2021/05/06 16:48:48;;;;;;;4.60;4.07;;;;;;;;;;5049206;28;20107;-85
2021/05/06 16:51:14;;;;;;;4.72;3.78;;;;;;;;;;5049604;28;20073;-85
2021/05/06 16:53:40;;;;;;;4.10;3.63;;;;;;;;;;5034092;28;20045;-86
2021/05/06 16:56:06;;;;;;;4.78;3.45;;;;;;;;;;5032422;28;20053;-84
2021/05/06 16:58:32;;;;;;;4.55;3.55;;;;;;;;;;5049260;28;20033;-86
2021/05/06 17:00:58;;;;;;;5.97;4.07;;;;;;;;;;5033894;28;20080;-85
2021/05/06 17:03:24;;;;;;;5.32;3.55;;;;;;;;;;5033793;28;20172;-85
2021/05/06 17:05:50;;;;;;;4.28;3.88;;;;;;;;;;5049269;28;20225;-85
2021/05/06 17:08:18;;;;;;;5.25;3.78;;;;;;;;;;5048900;28;20048;-85
2021/05/06 17:10:44;;;;;;;4.60;4.20;;;;;;;;;;5049095;28;20038;-85
2021/05/06 17:13:12;;;;;;;7.57;4.55;;;;;;;;;;5049075;28;20041;-86
2021/05/06 17:15:38;;;;;;;4.63;3.83;;;;;;;;;;5048664;28;20044;-86
2021/05/06 17:18:05;;;;;;;6.07;3.88;;;;;;;;;;5048761;28;20029;-85
2021/05/06 17:20:31;;;;;;;5.22;4.20;;;;;;;;;;5048791;28;20033;-85
2021/05/06 17:22:57;;;;;;;5.40;3.78;;;;;;;;;;5048948;28;20037;-85
2021/05/06 17:25:23;;;;;;;6.88;4.53;;;;;;;;;;5048915;28;20122;-86
2021/05/06 17:27:49;;;;;;;6.90;3.65;;;;;;;;;;5048827;28;20393;-85
2021/05/06 17:30:16;;;;;;;4.32;3.60;;;;;;;;;;5048547;28;20044;-86
2021/05/06 17:32:43;;;;;;;5.93;4.10;;;;;;;;;;5048756;28;20060;-85
2021/05/06 17:35:09;;;;;;;5.95;4.03;;;;;;;;;;5033140;28;20048;-85
2021/05/06 17:37:35;;;;;;;4.25;3.60;;;;;;;;;;5048360;28;20132;-84
2021/05/06 17:40:02;;;;;;;4.97;3.45;;;;;;;;;;5031657;28;20049;-85
2021/05/06 17:42:28;;;;;;;5.82;3.75;;;;;;;;;;5048265;28;20037;-85
2021/05/06 17:44:55;;;;;;;4.35;3.55;;;;;;;;;;5048268;28;20043;-85
2021/05/06 17:47:23;;;;;;;5.60;3.88;;;;;;;;;;5048248;28;20047;-86
2021/05/06 17:49:49;;;;;;;6.70;3.97;;;;;;;;;;5047720;28;20148;-86
2021/05/06 17:52:15;;;;;;;5.78;3.55;;;;;;;;;;5048028;28;20037;-86
2021/05/06 17:54:41;;;;;;;6.05;4.13;;;;;;;;;;5048146;28;20049;-85
2021/05/06 17:57:07;;;;;;;5.97;3.78;;;;;;;;;;5047966;28;20124;-85
2021/05/06 17:59:33;;;;;;;5.07;3.60;;;;;;;;;;5031367;28;20457;-86
2021/05/06 18:01:59;;;;;;;6.63;4.00;;;;;;;;;;5048053;28;20068;-86
2021/05/06 18:04:25;;;;;;;5.13;3.65;;;;;;;;;;5032622;28;20409;-86
2021/05/06 18:06:52;;;;;;;4.57;3.53;;;;;;;;;;5047967;28;20048;-86